Time;durP1;ratioP1;P1;durP2;ratioP2;P2;SDS_P1;SDS_P2;PMS_P1;PMS_P2;Temp;Humidity;BMP_temperature;BMP_pressure;BME280_temperature;BME280_humidity;BME280_pressure;Samples;Min_cycle;Max_cycle;Signal;HPM_P1;HPM_P2
2022/03/26 00:00:47;;;;;;;1.77;1.50;;;8.40;99.90;;;;;;5033086;28;20398;-70
2022/03/26 00:03:13;;;;;;;2.03;1.93;;;8.40;99.90;;;;;;5033057;28;20460;-69
2022/03/26 00:05:39;;;;;;;5.87;3.77;;;8.30;99.90;;;;;;5032898;28;20192;-70
2022/03/26 00:08:05;;;;;;;2.10;2.00;;;8.30;99.90;;;;;;5032766;28;20406;-70
2022/03/26 00:10:31;;;;;;;1.00;0.90;;;8.30;99.90;;;;;;5031683;28;20464;-70
2022/03/26 00:12:57;;;;;;;6.87;1.33;;;8.30;99.90;;;;;;5031570;28;20407;-70
2022/03/26 00:15:23;;;;;;;6.83;1.17;;;8.20;99.90;;;;;;5031274;28;20192;-70
2022/03/26 00:17:49;;;;;;;1.57;1.23;;;8.20;99.90;;;;;;5032358;28;20493;-70
2022/03/26 00:20:15;;;;;;;1.93;1.43;;;8.20;99.90;;;;;;5032388;28;20489;-70
2022/03/26 00:22:40;;;;;;;2.17;1.40;;;8.20;99.90;;;;;;5032688;28;20209;-70
2022/03/26 00:25:06;;;;;;;6.67;3.00;;;8.20;99.90;;;;;;5032509;28;20183;-70
2022/03/26 00:27:32;;;;;;;2.33;1.53;;;8.20;99.90;;;;;;5032534;28;20168;-69
2022/03/26 00:29:58;;;;;;;2.77;2.60;;;8.20;99.90;;;;;;5032207;28;20402;-71
2022/03/26 00:32:24;;;;;;;0.90;0.80;;;8.10;99.90;;;;;;5032455;28;20691;-70
2022/03/26 00:34:49;;;;;;;2.13;1.27;;;8.10;99.90;;;;;;5032319;28;20183;-69
2022/03/26 00:37:16;;;;;;;1.33;1.23;;;8.10;99.90;;;;;;5032474;28;20807;-69
2022/03/26 00:39:42;;;;;;;1.33;0.97;;;8.10;99.90;;;;;;5030881;28;20908;-70
2022/03/26 00:42:08;;;;;;;1.43;1.27;;;8.10;99.90;;;;;;5032250;28;20399;-70
2022/03/26 00:44:38;;;;;;;1.90;1.70;;;8.00;99.90;;;;;;5031964;28;20796;-70
2022/03/26 00:47:05;;;;;;;1.17;1.07;;;8.00;99.90;;;;;;5031033;28;20494;-70
2022/03/26 00:49:31;;;;;;;1.90;1.43;;;8.00;99.90;;;;;;5032053;28;20406;-70
2022/03/26 00:51:56;;;;;;;2.30;0.90;;;8.00;99.90;;;;;;5032206;28;20456;-70
2022/03/26 00:54:23;;;;;;;2.40;1.47;;;8.00;99.90;;;;;;5031961;28;20457;-70
2022/03/26 00:56:49;;;;;;;1.20;0.83;;;8.00;99.90;;;;;;5032151;28;20187;-70
2022/03/26 00:59:14;;;;;;;1.73;1.63;;;7.90;99.90;;;;;;5031932;28;20406;-69
2022/03/26 01:01:40;;;;;;;16.93;2.00;;;7.90;99.90;;;;;;5031940;28;20553;-70
2022/03/26 01:04:06;;;;;;;2.63;1.97;;;7.90;99.90;;;;;;5032027;28;20167;-70
2022/03/26 01:06:32;;;;;;;2.20;1.90;;;7.90;99.90;;;;;;5032146;28;20413;-70
2022/03/26 01:08:57;;;;;;;2.03;1.93;;;7.80;99.90;;;;;;5031794;28;20172;-70
2022/03/26 01:11:23;;;;;;;0.90;0.80;;;7.90;99.90;;;;;;5030828;28;20919;-70
2022/03/26 01:13:53;;;;;;;2.23;0.90;;;7.80;99.90;;;;;;5031952;28;20172;-70
2022/03/26 01:16:18;;;;;;;2.83;1.70;;;7.80;99.90;;;;;;5031855;28;20306;-70
2022/03/26 01:18:44;;;;;;;2.27;2.17;;;7.80;99.90;;;;;;5031516;28;20875;-69
2022/03/26 01:21:09;;;;;;;0.80;0.50;;;7.80;99.90;;;;;;5030611;28;20501;-70
2022/03/26 01:23:35;;;;;;;0.80;0.80;;;7.70;99.90;;;;;;5031857;28;20164;-69
2022/03/26 01:26:02;;;;;;;1.17;1.07;;;7.70;99.90;;;;;;5031794;28;20298;-70
2022/03/26 01:28:30;;;;;;;1.03;0.93;;;7.70;99.90;;;;;;5031664;28;20171;-70
2022/03/26 01:30:56;;;;;;;1.87;1.60;;;7.70;99.90;;;;;;5031770;28;20406;-69
2022/03/26 01:33:22;;;;;;;3.43;3.00;;;7.70;99.90;;;;;;5031885;28;20768;-70
2022/03/26 01:35:47;;;;;;;2.10;1.63;;;7.70;99.90;;;;;;5031680;28;20446;-70
2022/03/26 01:38:13;;;;;;;0.77;0.57;;;7.60;99.90;;;;;;5031454;28;20641;-69
2022/03/26 01:40:38;;;;;;;1.20;1.10;;;7.60;99.90;;;;;;5031733;28;20599;-70
2022/03/26 01:43:06;;;;;;;1.00;0.70;;;7.60;99.90;;;;;;5031745;28;20168;-69
2022/03/26 01:45:32;;;;;;;1.80;1.70;;;7.60;99.90;;;;;;5031599;28;20291;-70
2022/03/26 01:47:58;;;;;;;2.10;1.90;;;7.50;99.90;;;;;;5031393;28;20450;-70
2022/03/26 01:50:26;;;;;;;1.03;0.93;;;7.50;99.90;;;;;;5031524;28;20410;-69
2022/03/26 01:52:51;;;;;;;1.50;1.17;;;7.50;99.90;;;;;;5031597;28;20504;-70
2022/03/26 01:55:18;;;;;;;1.23;0.70;;;7.40;99.90;;;;;;5031296;28;20886;-69
2022/03/26 01:57:44;;;;;;;3.80;1.40;;;7.40;99.90;;;;;;5033709;28;20211;-70
2022/03/26 02:00:11;;;;;;;1.90;1.30;;;7.30;99.90;;;;;;5035032;28;20426;-69
2022/03/26 02:02:37;;;;;;;0.90;0.77;;;7.30;99.90;;;;;;5035231;28;20489;-69
2022/03/26 02:05:03;;;;;;;1.43;1.33;;;7.30;99.90;;;;;;5035054;28;20517;-69
2022/03/26 02:07:29;;;;;;;3.03;1.53;;;7.20;99.90;;;;;;5035106;28;20179;-70
2022/03/26 02:09:54;;;;;;;1.03;0.93;;;7.20;99.90;;;;;;5034906;28;20691;-71
2022/03/26 02:12:29;;;;;;;1.23;1.13;;;7.20;99.90;;;;;;5035153;28;20519;-71
2022/03/26 02:14:57;;;;;;;3.30;3.03;;;7.10;99.90;;;;;;5034954;28;20202;-70
2022/03/26 02:17:23;;;;;;;1.13;1.03;;;7.10;99.90;;;;;;5033139;28;20456;-70
2022/03/26 02:19:50;;;;;;;1.73;1.50;;;7.10;99.90;;;;;;5034791;28;20406;-70
2022/03/26 02:22:16;;;;;;;0.70;0.50;;;7.00;99.90;;;;;;5033652;28;20172;-69
2022/03/26 02:24:41;;;;;;;0.80;0.80;;;7.00;99.90;;;;;;5034850;28;20418;-70
2022/03/26 02:27:08;;;;;;;1.10;1.00;;;7.00;99.90;;;;;;5033601;28;20183;-71
2022/03/26 02:29:33;;;;;;;3.80;1.60;;;6.90;99.90;;;;;;5034356;28;20179;-71
2022/03/26 02:31:59;;;;;;;1.23;1.13;;;6.90;99.90;;;;;;5033356;28;20792;-70
2022/03/26 02:34:26;;;;;;;2.43;2.17;;;6.90;99.90;;;;;;5034537;28;20197;-70
2022/03/26 02:36:54;;;;;;;0.83;0.67;;;6.90;99.90;;;;;;5034644;28;20183;-70
2022/03/26 02:39:20;;;;;;;0.80;0.70;;;6.80;99.90;;;;;;5034347;28;20493;-69
2022/03/26 02:41:46;;;;;;;1.57;1.47;;;6.80;99.90;;;;;;5034650;28;20410;-69
2022/03/26 02:44:11;;;;;;;0.80;0.50;;;6.80;99.90;;;;;;5033159;28;20431;-70
2022/03/26 02:46:38;;;;;;;1.03;0.93;;;6.80;99.90;;;;;;5034486;28;20225;-69
2022/03/26 02:49:03;;;;;;;2.53;1.23;;;6.80;99.90;;;;;;5034202;28;20167;-69
2022/03/26 02:51:29;;;;;;;1.27;1.17;;;6.70;99.90;;;;;;5034331;28;20413;-69
2022/03/26 02:53:54;;;;;;;1.27;1.17;;;6.70;99.90;;;;;;5034154;28;20215;-68
2022/03/26 02:56:20;;;;;;;1.30;1.00;;;6.70;99.90;;;;;;5034317;28;20234;-68
2022/03/26 02:58:48;;;;;;;3.10;1.43;;;6.70;99.90;;;;;;5033762;28;20223;-68
2022/03/26 03:01:14;;;;;;;0.90;0.80;;;6.70;99.90;;;;;;5034074;28;20404;-68
2022/03/26 03:03:40;;;;;;;1.00;0.90;;;6.70;99.90;;;;;;5033062;28;20493;-68
2022/03/26 03:06:05;;;;;;;2.33;2.17;;;6.70;99.90;;;;;;5032836;28;20492;-69
2022/03/26 03:08:31;;;;;;;2.23;2.13;;;6.70;99.90;;;;;;5033304;28;20418;-69
2022/03/26 03:10:57;;;;;;;0.80;0.70;;;6.70;99.90;;;;;;5034111;28;20172;-68
2022/03/26 03:13:22;;;;;;;1.07;0.97;;;6.60;99.90;;;;;;5033897;28;20184;-68
2022/03/26 03:15:49;;;;;;;2.80;2.30;;;6.60;99.90;;;;;;5032415;28;20258;-69
2022/03/26 03:18:14;;;;;;;1.93;1.83;;;6.60;99.90;;;;;;5033573;28;20170;-68
2022/03/26 03:20:40;;;;;;;1.30;1.00;;;6.60;99.90;;;;;;5033795;28;20414;-69
2022/03/26 03:23:06;;;;;;;0.80;0.50;;;6.50;99.90;;;;;;5033718;28;20738;-69
2022/03/26 03:25:31;;;;;;;1.27;1.00;;;6.50;99.90;;;;;;5033711;28;20270;-69
2022/03/26 03:27:57;;;;;;;3.67;2.27;;;6.50;99.90;;;;;;5033389;28;20506;-68
2022/03/26 03:30:24;;;;;;;1.33;0.70;;;6.50;99.90;;;;;;5033588;28;20195;-69
2022/03/26 03:32:50;;;;;;;1.13;1.03;;;6.50;99.90;;;;;;5033548;28;20472;-69
2022/03/26 03:35:16;;;;;;;1.87;1.70;;;6.40;99.90;;;;;;5033317;28;20426;-68
2022/03/26 03:37:42;;;;;;;1.47;1.37;;;6.40;99.90;;;;;;5033564;28;20639;-69
2022/03/26 03:40:08;;;;;;;3.30;2.83;;;6.40;99.90;;;;;;5033289;28;20167;-69
2022/03/26 03:42:34;;;;;;;3.60;0.80;;;6.40;99.90;;;;;;5033353;28;20171;-69
2022/03/26 03:45:03;;;;;;;3.13;1.03;;;6.40;99.90;;;;;;5032986;28;20529;-68
2022/03/26 03:47:29;;;;;;;0.80;0.70;;;6.30;99.90;;;;;;5033236;28;20999;-68
2022/03/26 03:49:54;;;;;;;2.23;2.10;;;6.30;99.90;;;;;;5032975;28;20493;-68
2022/03/26 03:52:20;;;;;;;2.60;2.03;;;6.30;99.90;;;;;;5033151;28;20172;-68
2022/03/26 03:54:45;;;;;;;0.97;0.97;;;6.30;99.90;;;;;;5033047;28;20238;-69
2022/03/26 03:57:11;;;;;;;1.37;1.27;;;6.30;99.90;;;;;;5033127;28;20261;-69
2022/03/26 03:59:40;;;;;;;1.07;0.97;;;6.30;99.90;;;;;;5032923;28;20179;-68
2022/03/26 04:02:10;;;;;;;2.97;1.73;;;6.20;99.90;;;;;;5032962;28;20163;-69
2022/03/26 04:04:42;;;;;;;4.77;1.90;;;6.20;99.90;;;;;;5032944;28;20423;-69
2022/03/26 04:07:08;;;;;;;1.57;0.90;;;6.20;99.90;;;;;;5032947;28;20422;-68
2022/03/26 04:09:35;;;;;;;0.80;0.50;;;6.20;99.90;;;;;;5032728;28;20488;-69
2022/03/26 04:12:01;;;;;;;0.90;0.63;;;6.10;99.90;;;;;;5032963;28;20926;-68
2022/03/26 04:14:28;;;;;;;1.00;0.60;;;6.10;99.90;;;;;;5031409;28;20434;-69
2022/03/26 04:16:53;;;;;;;2.87;2.10;;;6.10;99.90;;;;;;5032626;28;20512;-68
2022/03/26 04:19:19;;;;;;;0.80;0.60;;;6.10;99.90;;;;;;5030410;28;20406;-68
2022/03/26 04:21:45;;;;;;;1.93;1.20;;;6.00;99.90;;;;;;5032693;28;20167;-69
2022/03/26 04:24:11;;;;;;;2.60;1.00;;;6.00;99.90;;;;;;5031290;28;20269;-68
2022/03/26 04:26:37;;;;;;;1.20;1.10;;;6.00;99.90;;;;;;5032378;28;20410;-68
2022/03/26 04:29:03;;;;;;;3.53;3.23;;;6.00;99.90;;;;;;5032076;28;20413;-68
2022/03/26 04:31:29;;;;;;;0.80;0.67;;;5.90;99.90;;;;;;5032502;28;20593;-68
2022/03/26 04:33:54;;;;;;;1.20;1.10;;;5.90;99.90;;;;;;5032251;28;20175;-68
2022/03/26 04:36:20;;;;;;;3.13;0.70;;;5.90;99.90;;;;;;5032208;28;20226;-69
2022/03/26 04:38:47;;;;;;;2.10;1.63;;;5.90;99.90;;;;;;5032167;28;20250;-68
2022/03/26 04:41:14;;;;;;;3.03;2.40;;;5.80;99.90;;;;;;5032225;28;20418;-68
2022/03/26 04:43:40;;;;;;;1.47;1.37;;;5.80;99.90;;;;;;5032196;28;20402;-68
2022/03/26 04:46:05;;;;;;;1.03;0.80;;;5.80;99.90;;;;;;5032194;28;21013;-69
2022/03/26 04:48:31;;;;;;;0.80;0.60;;;5.70;99.90;;;;;;5032011;28;20410;-68
2022/03/26 04:50:57;;;;;;;5.27;2.53;;;5.70;99.90;;;;;;5032319;28;20664;-69
2022/03/26 04:53:23;;;;;;;1.30;1.03;;;5.70;99.90;;;;;;5032113;28;20663;-68
2022/03/26 04:55:49;;;;;;;2.33;2.13;;;5.60;99.90;;;;;;5031778;28;20457;-69
2022/03/26 04:58:14;;;;;;;2.40;1.17;;;5.60;99.90;;;;;;5031809;28;20402;-69
2022/03/26 05:00:40;;;;;;;1.43;1.33;;;5.60;99.90;;;;;;5032061;28;20250;-69
2022/03/26 05:03:06;;;;;;;3.53;1.23;;;5.50;99.90;;;;;;5032012;28;20160;-69
2022/03/26 05:05:32;;;;;;;1.73;1.63;;;5.50;99.90;;;;;;5031877;28;20433;-68
2022/03/26 05:07:59;;;;;;;1.10;1.00;;;5.50;99.90;;;;;;5032114;28;20436;-68
2022/03/26 05:10:28;;;;;;;2.27;2.07;;;5.50;99.90;;;;;;5031902;28;20167;-69
2022/03/26 05:12:54;;;;;;;0.80;0.60;;;5.40;99.90;;;;;;5031883;28;20398;-69
2022/03/26 05:15:22;;;;;;;1.20;1.10;;;5.40;99.90;;;;;;5031729;28;20418;-68
2022/03/26 05:17:48;;;;;;;2.20;1.73;;;5.40;99.90;;;;;;5032092;28;20978;-69
2022/03/26 05:20:14;;;;;;;0.80;0.70;;;5.40;99.90;;;;;;5031696;28;20406;-69
2022/03/26 05:22:41;;;;;;;3.03;1.90;;;5.30;99.90;;;;;;5031899;28;20922;-69
2022/03/26 05:25:07;;;;;;;1.77;1.67;;;5.30;99.90;;;;;;5031857;28;20472;-69
2022/03/26 05:27:33;;;;;;;2.60;2.50;;;5.30;99.90;;;;;;5031923;28;20398;-68
2022/03/26 05:29:59;;;;;;;4.50;2.40;;;5.30;99.90;;;;;;5031527;28;20484;-68
2022/03/26 05:32:24;;;;;;;2.97;2.87;;;5.30;99.90;;;;;;5035604;28;20170;-69
2022/03/26 05:34:50;;;;;;;0.80;0.50;;;5.30;99.90;;;;;;5035828;28;20430;-70
2022/03/26 05:37:16;;;;;;;1.97;1.17;;;5.30;99.90;;;;;;5035680;28;20199;-69
2022/03/26 05:39:42;;;;;;;2.17;1.83;;;5.30;99.90;;;;;;5035485;28;20538;-68
2022/03/26 05:42:08;;;;;;;1.53;1.43;;;5.30;99.90;;;;;;5035542;28;20394;-69
2022/03/26 05:44:33;;;;;;;3.10;1.47;;;5.30;99.90;;;;;;5035504;28;20191;-69
2022/03/26 05:47:00;;;;;;;1.03;0.97;;;5.40;99.90;;;;;;5035671;28;20942;-69
2022/03/26 05:49:26;;;;;;;3.97;3.67;;;5.40;99.90;;;;;;5035354;28;20175;-69
2022/03/26 05:51:51;;;;;;;0.80;0.80;;;5.40;99.90;;;;;;5035477;28;20402;-69
2022/03/26 05:54:18;;;;;;;1.00;0.90;;;5.50;99.90;;;;;;5035296;28;20207;-69
2022/03/26 05:56:51;;;;;;;0.80;0.50;;;5.60;99.90;;;;;;5035270;28;20241;-69
2022/03/26 05:59:23;;;;;;;1.00;0.80;;;5.70;99.90;;;;;;5035220;28;20406;-69
2022/03/26 06:01:49;;;;;;;2.20;1.30;;;5.80;99.90;;;;;;5035563;28;20484;-69
2022/03/26 06:04:16;;;;;;;2.27;1.50;;;5.90;99.90;;;;;;5035256;28;20446;-69
2022/03/26 06:06:41;;;;;;;0.80;0.60;;;6.00;99.90;;;;;;5035229;28;20410;-68
2022/03/26 06:09:07;;;;;;;1.37;1.00;;;6.20;99.90;;;;;;5034966;28;20418;-69
2022/03/26 06:11:33;;;;;;;1.20;0.70;;;6.40;99.90;;;;;;5035207;28;20172;-69
2022/03/26 06:13:58;;;;;;;1.63;1.53;;;6.60;99.90;;;;;;5035099;28;20473;-69
2022/03/26 06:16:24;;;;;;;3.23;2.93;;;6.80;99.90;;;;;;5035048;28;20594;-69
2022/03/26 06:18:50;;;;;;;2.30;2.20;;;7.10;99.90;;;;;;5034735;28;20172;-70
2022/03/26 06:21:16;;;;;;;4.30;4.10;;;7.40;99.90;;;;;;5034959;28;20203;-68
2022/03/26 06:23:41;;;;;;;1.17;1.07;;;7.70;99.90;;;;;;5034867;28;20533;-68
2022/03/26 06:26:07;;;;;;;2.07;1.00;;;8.00;99.90;;;;;;5034766;28;20923;-68
2022/03/26 06:28:33;;;;;;;1.23;1.13;;;8.40;99.90;;;;;;5034558;28;20171;-68
2022/03/26 06:30:58;;;;;;;9.40;1.90;;;8.70;99.90;;;;;;5034873;28;20537;-69
2022/03/26 06:33:24;;;;;;;2.60;2.40;;;9.10;99.90;;;;;;5034703;28;20175;-69
2022/03/26 06:35:50;;;;;;;2.03;1.50;;;9.50;99.90;;;;;;5034618;28;20195;-69
2022/03/26 06:38:15;;;;;;;4.30;2.70;;;9.80;99.90;;;;;;5034417;28;20168;-69
2022/03/26 06:40:41;;;;;;;4.13;3.53;;;10.20;99.90;;;;;;5034708;28;20521;-69
2022/03/26 06:43:07;;;;;;;7.00;1.70;;;10.60;99.90;;;;;;5033738;28;20167;-68
2022/03/26 06:45:35;;;;;;;4.30;2.70;;;11.00;99.90;;;;;;5034313;28;20477;-69
2022/03/26 06:48:01;;;;;;;16.50;4.03;;;11.50;99.90;;;;;;5034501;28;20398;-69
2022/03/26 06:50:27;;;;;;;2.80;2.60;;;11.90;99.90;;;;;;5032759;28;20501;-69
2022/03/26 06:52:53;;;;;;;3.87;3.57;;;12.30;99.90;;;;;;5034429;28;20489;-69
2022/03/26 06:55:18;;;;;;;5.80;2.13;;;12.70;99.90;;;;;;5034131;28;20594;-68
2022/03/26 06:57:45;;;;;;;9.03;4.30;;;13.00;99.90;;;;;;5032918;28;20541;-67
2022/03/26 07:00:11;;;;;;;4.03;3.07;;;13.30;99.90;;;;;;5033996;28;20506;-68
2022/03/26 07:02:37;;;;;;;6.20;2.60;;;13.50;99.90;;;;;;5034110;28;20448;-69
2022/03/26 07:05:04;;;;;;;2.73;2.50;;;13.70;99.90;;;;;;5033057;28;20940;-69
2022/03/26 07:07:30;;;;;;;10.50;4.57;;;13.80;99.90;;;;;;5034084;28;20493;-69
2022/03/26 07:09:56;;;;;;;8.87;3.10;;;13.90;99.90;;;;;;5033618;28;20472;-69
2022/03/26 07:12:21;;;;;;;4.03;2.80;;;13.90;99.90;;;;;;5034045;28;20406;-69
2022/03/26 07:14:47;;;;;;;5.90;3.93;;;14.00;99.90;;;;;;5033840;28;20191;-70
2022/03/26 07:17:12;;;;;;;9.00;6.87;;;14.10;99.90;;;;;;5033837;28;20554;-69
2022/03/26 07:19:38;;;;;;;2.90;2.70;;;14.40;99.90;;;;;;5033515;28;20164;-69
2022/03/26 07:22:04;;;;;;;6.53;4.60;;;14.90;99.90;;;;;;5033761;28;20167;-69
2022/03/26 07:24:29;;;;;;;8.50;3.60;;;15.40;99.90;;;;;;5033558;28;20257;-70
2022/03/26 07:26:55;;;;;;;8.10;6.70;;;16.00;99.90;;;;;;5033744;28;20597;-69
2022/03/26 07:29:20;;;;;;;7.23;5.93;;;16.70;99.30;;;;;;5033419;28;20167;-69
2022/03/26 07:31:46;;;;;;;9.27;7.83;;;17.40;96.50;;;;;;5033628;28;20164;-69
2022/03/26 07:34:13;;;;;;;11.10;4.63;;;18.00;92.60;;;;;;5033471;28;20556;-70
2022/03/26 07:36:39;;;;;;;6.87;4.50;;;18.70;90.80;;;;;;5033453;28;20191;-69
2022/03/26 07:39:04;;;;;;;21.07;5.50;;;19.40;86.40;;;;;;5031883;28;20521;-69
2022/03/26 07:41:30;;;;;;;6.63;4.87;;;20.10;81.30;;;;;;5033488;28;20675;-69
2022/03/26 07:43:56;;;;;;;6.63;4.80;;;20.70;76.10;;;;;;5033234;28;20164;-69
2022/03/26 07:46:22;;;;;;;12.70;6.50;;;21.30;72.00;;;;;;5033338;28;20168;-69
2022/03/26 07:48:49;;;;;;;16.50;6.70;;;21.80;67.60;;;;;;5033093;28;20969;-69
2022/03/26 07:51:15;;;;;;;7.93;5.33;;;22.10;63.90;;;;;;5033298;28;20636;-69
2022/03/26 07:53:41;;;;;;;8.03;5.97;;;22.40;62.10;;;;;;5031733;28;20437;-70
2022/03/26 07:56:06;;;;;;;9.87;6.10;;;22.70;59.70;;;;;;5033213;28;20188;-70
2022/03/26 07:58:32;;;;;;;9.60;4.73;;;23.20;58.70;;;;;;5032824;28;20402;-70
2022/03/26 08:00:57;;;;;;;5.70;3.90;;;23.60;56.00;;;;;;5033091;28;20179;-69
2022/03/26 08:03:24;;;;;;;11.60;7.13;;;24.00;55.80;;;;;;5032998;28;20491;-70
2022/03/26 08:05:50;;;;;;;9.23;5.40;;;24.40;55.20;;;;;;5032860;28;20234;-71
2022/03/26 08:08:16;;;;;;;14.60;5.67;;;24.90;54.20;;;;;;5032906;28;20403;-71
2022/03/26 08:10:41;;;;;;;8.50;7.57;;;25.40;53.10;;;;;;5032677;28;20203;-70
2022/03/26 08:13:07;;;;;;;13.63;7.83;;;25.90;52.20;;;;;;5032878;28;20255;-70
2022/03/26 08:15:32;;;;;;;11.13;5.93;;;26.50;51.00;;;;;;5032786;28;20206;-70
2022/03/26 08:18:02;;;;;;;10.80;7.80;;;27.10;50.50;;;;;;5032791;28;20176;-71
2022/03/26 08:20:28;;;;;;;9.77;7.07;;;27.70;49.20;;;;;;5032432;28;20164;-71
2022/03/26 08:22:54;;;;;;;12.30;6.70;;;28.30;47.60;;;;;;5032607;28;20810;-70
2022/03/26 08:28:08;;;;;;;8.50;5.43;;;29.50;45.00;;;;;;5032818;28;20226;-71
2022/03/26 08:30:34;;;;;;;11.27;6.87;;;30.10;43.10;;;;;;5032243;28;20839;-70
2022/03/26 08:33:01;;;;;;;7.77;6.40;;;30.70;41.80;;;;;;5032514;28;20402;-70
2022/03/26 08:35:37;;;;;;;11.60;7.17;;;31.20;40.70;;;;;;5032411;28;20524;-70
2022/03/26 08:38:03;;;;;;;9.07;7.33;;;31.70;40.50;;;;;;5032606;28;20413;-70
2022/03/26 08:40:29;;;;;;;12.40;6.17;;;32.20;38.70;;;;;;5031239;28;20915;-70
2022/03/26 08:42:54;;;;;;;7.40;6.63;;;32.60;37.70;;;;;;5032502;28;20184;-70
2022/03/26 08:45:20;;;;;;;9.93;6.33;;;33.10;36.90;;;;;;5032162;28;20434;-71
2022/03/26 08:47:46;;;;;;;11.20;7.20;;;33.50;36.40;;;;;;5032498;28;20258;-70
2022/03/26 08:50:12;;;;;;;12.77;8.03;;;33.90;35.50;;;;;;5030617;28;20179;-70
2022/03/26 08:52:37;;;;;;;9.37;6.40;;;34.30;34.90;;;;;;5030967;28;20556;-71
2022/03/26 08:55:04;;;;;;;14.30;8.53;;;34.70;34.50;;;;;;5031910;28;20207;-70
2022/03/26 08:57:30;;;;;;;10.40;6.57;;;35.10;33.70;;;;;;5032031;28;20286;-71
2022/03/26 08:59:55;;;;;;;9.20;6.77;;;35.50;32.80;;;;;;5031769;28;20557;-70
2022/03/26 09:02:21;;;;;;;7.70;6.37;;;35.90;32.70;;;;;;5032128;28;20581;-70
2022/03/26 09:04:46;;;;;;;11.73;7.57;;;36.30;32.30;;;;;;5031901;28;20187;-70
2022/03/26 09:07:12;;;;;;;12.30;5.80;;;36.60;32.10;;;;;;5031648;28;20510;-70
2022/03/26 09:09:38;;;;;;;9.03;7.30;;;37.00;31.60;;;;;;5031696;28;20164;-71
2022/03/26 09:12:04;;;;;;;10.10;6.10;;;37.30;31.00;;;;;;5032009;28;20176;-70
2022/03/26 09:14:30;;;;;;;7.80;6.63;;;37.60;31.50;;;;;;5031869;28;20188;-70
2022/03/26 09:16:55;;;;;;;6.37;5.77;;;37.90;30.50;;;;;;5031911;28;20523;-71
2022/03/26 09:19:21;;;;;;;11.10;7.03;;;38.20;30.20;;;;;;5031677;28;20233;-70
2022/03/26 09:21:46;;;;;;;9.83;5.73;;;38.60;30.40;;;;;;5031916;28;20532;-71
2022/03/26 09:24:16;;;;;;;6.73;5.10;;;38.80;30.00;;;;;;5031788;28;20697;-70
2022/03/26 09:26:42;;;;;;;8.93;6.50;;;39.00;29.90;;;;;;5031834;28;20668;-71
2022/03/26 09:29:07;;;;;;;8.40;7.53;;;39.30;29.70;;;;;;5031860;28;20942;-70
2022/03/26 09:31:33;;;;;;;8.60;5.10;;;39.70;29.60;;;;;;5031790;28;20400;-70
2022/03/26 09:33:59;;;;;;;7.13;6.43;;;40.00;29.40;;;;;;5031702;28;20172;-71
2022/03/26 09:36:24;;;;;;;11.33;6.80;;;40.30;29.00;;;;;;5031752;28;20619;-70
2022/03/26 09:38:50;;;;;;;8.13;6.90;;;40.60;28.70;;;;;;5031592;28;20708;-71
2022/03/26 09:41:16;;;;;;;9.63;6.20;;;40.80;28.10;;;;;;5031887;28;20160;-71
2022/03/26 09:43:43;;;;;;;9.10;7.30;;;41.10;28.30;;;;;;5031763;28;20221;-71
2022/03/26 09:46:08;;;;;;;9.17;6.37;;;41.40;28.00;;;;;;5031713;28;20429;-70
2022/03/26 09:48:36;;;;;;;12.73;9.03;;;41.70;27.80;;;;;;5031557;28;20381;-70
2022/03/26 09:51:03;;;;;;;12.43;8.77;;;42.00;27.80;;;;;;5031684;28;20237;-70
2022/03/26 09:53:29;;;;;;;7.00;5.90;;;42.30;27.50;;;;;;5031545;28;20411;-71
2022/03/26 09:55:55;;;;;;;6.80;6.10;;;42.50;27.20;;;;;;5031461;28;20970;-70
2022/03/26 09:58:20;;;;;;;8.87;6.60;;;42.70;27.10;;;;;;5031545;28;20170;-70
2022/03/26 10:00:47;;;;;;;9.50;6.40;;;42.90;27.00;;;;;;5031301;28;20171;-71
2022/03/26 10:03:13;;;;;;;9.40;6.10;;;43.10;26.90;;;;;;5031579;28;20160;-71
2022/03/26 10:05:39;;;;;;;9.00;5.40;;;43.30;26.40;;;;;;5030091;28;20838;-70
2022/03/26 10:08:20;;;;;;;10.50;5.97;;;43.50;26.50;;;;;;5031474;28;20541;-71
2022/03/26 10:10:46;;;;;;;9.83;6.13;;;43.80;26.20;;;;;;5031172;28;20167;-71
2022/03/26 10:13:31;;;;;;;7.83;6.43;;;44.10;26.10;;;;;;5031417;28;20387;-71
2022/03/26 10:16:02;;;;;;;7.33;5.20;;;44.30;25.50;;;;;;5031391;28;20516;-70
2022/03/26 10:18:33;;;;;;;16.90;5.83;;;44.60;25.40;;;;;;5033315;28;20428;-71
2022/03/26 10:21:00;;;;;;;8.30;7.03;;;44.90;25.60;;;;;;5034822;28;20392;-71
2022/03/26 10:23:29;;;;;;;9.13;6.43;;;45.20;25.20;;;;;;5034913;28;20384;-70
2022/03/26 10:26:12;;;;;;;9.80;7.10;;;45.50;25.10;;;;;;5034664;28;20428;-71
2022/03/26 10:28:40;;;;;;;11.00;6.37;;;45.90;25.10;;;;;;5034665;28;20384;-71
2022/03/26 10:34:15;;;;;;;6.17;5.43;;;46.20;24.50;;;;;;5034911;28;20488;-68
2022/03/26 10:36:42;;;;;;;6.50;5.90;;;46.40;25.00;;;;;;5034700;28;20394;-68
2022/03/26 10:39:15;;;;;;;7.60;5.90;;;46.80;25.10;;;;;;5034460;28;20381;-68
2022/03/26 10:41:41;;;;;;;6.53;5.87;;;47.30;25.00;;;;;;5034649;28;20369;-69
2022/03/26 10:44:15;;;;;;;7.83;6.53;;;47.70;24.90;;;;;;5034323;28;20468;-69
2022/03/26 10:46:52;;;;;;;8.17;6.80;;;48.10;24.80;;;;;;5034388;28;20227;-69
2022/03/26 10:49:29;;;;;;;8.80;6.90;;;48.40;24.70;;;;;;5033900;28;20380;-68
2022/03/26 10:51:56;;;;;;;6.10;5.50;;;48.90;24.70;;;;;;5034368;28;20780;-69
2022/03/26 10:54:30;;;;;;;7.03;6.30;;;49.10;24.20;;;;;;5034142;28;20478;-69
2022/03/26 10:56:58;;;;;;;10.67;7.90;;;49.40;24.30;;;;;;5034299;28;20410;-69
2022/03/26 10:59:24;;;;;;;7.50;6.90;;;49.70;24.00;;;;;;5034003;28;20436;-68
2022/03/26 11:01:50;;;;;;;9.00;6.80;;;50.00;23.60;;;;;;5034248;28;20423;-68
2022/03/26 11:04:16;;;;;;;5.30;4.80;;;50.20;23.50;;;;;;5034164;28;20196;-68
2022/03/26 11:06:43;;;;;;;11.97;6.10;;;50.50;23.20;;;;;;5034050;28;20429;-68
2022/03/26 11:09:10;;;;;;;6.00;5.40;;;50.90;22.90;;;;;;5033810;28;20190;-68
2022/03/26 11:11:36;;;;;;;8.73;6.07;;;50.90;22.00;;;;;;5033275;28;20825;-69
2022/03/26 11:14:09;;;;;;;6.00;5.40;;;50.90;22.00;;;;;;5034115;28;20380;-69
2022/03/26 11:16:34;;;;;;;5.43;4.93;;;51.00;22.00;;;;;;5034218;28;20389;-69
2022/03/26 11:19:26;;;;;;;7.03;5.63;;;50.80;22.10;;;;;;5033585;28;20892;-68
2022/03/26 11:22:11;;;;;;;7.60;5.40;;;50.90;22.40;;;;;;5033919;28;20180;-69
2022/03/26 11:24:52;;;;;;;7.47;5.70;;;51.40;22.50;;;;;;5033756;28;20766;-69
2022/03/26 11:27:49;;;;;;;6.00;5.47;;;51.80;22.60;;;;;;5032465;28;20436;-69
2022/03/26 11:30:17;;;;;;;5.90;5.33;;;52.20;22.40;;;;;;5033320;28;20399;-69
2022/03/26 11:32:49;;;;;;;9.87;7.37;;;52.70;22.40;;;;;;5033531;28;20406;-69
2022/03/26 11:35:17;;;;;;;9.30;8.37;;;52.90;22.20;;;;;;5033521;28;20430;-69
2022/03/26 11:38:00;;;;;;;6.63;6.00;;;53.10;22.10;;;;;;5033463;28;20441;-69
2022/03/26 11:40:50;;;;;;;7.53;6.83;;;53.30;22.20;;;;;;5033205;28;20406;-68
2022/03/26 11:43:42;;;;;;;7.70;7.00;;;53.60;22.30;;;;;;5033412;28;20406;-69
2022/03/26 11:51:39;;;;;;;7.87;6.10;;;54.20;21.90;;;;;;5033276;28;20516;-69
2022/03/26 11:54:13;;;;;;;6.10;5.60;;;54.40;21.70;;;;;;5033020;28;20476;-69
2022/03/26 11:56:40;;;;;;;6.83;6.30;;;54.40;21.80;;;;;;5033215;28;20757;-69
2022/03/26 11:59:06;;;;;;;6.07;5.47;;;54.50;21.80;;;;;;5032817;28;20415;-69
2022/03/26 12:01:37;;;;;;;7.50;6.27;;;54.60;21.80;;;;;;5033124;28;20485;-69
2022/03/26 12:04:13;;;;;;;5.70;5.20;;;54.70;21.50;;;;;;5032664;28;20886;-69
2022/03/26 12:06:48;;;;;;;6.13;5.53;;;54.90;21.60;;;;;;5032972;28;20429;-69
2022/03/26 12:09:34;;;;;;;7.77;6.37;;;55.10;21.60;;;;;;5032716;28;20406;-69
2022/03/26 12:12:06;;;;;;;6.87;6.23;;;55.30;21.70;;;;;;5032990;28;20493;-69
2022/03/26 12:14:33;;;;;;;9.70;6.40;;;55.10;21.40;;;;;;5032719;28;20825;-69
2022/03/26 12:16:58;;;;;;;8.10;7.30;;;55.10;21.60;;;;;;5031539;28;20520;-69
2022/03/26 12:19:37;;;;;;;7.20;6.20;;;55.20;21.60;;;;;;5032408;28;20497;-69
2022/03/26 12:22:26;;;;;;;7.37;4.93;;;55.20;21.40;;;;;;5032610;28;20172;-69
2022/03/26 12:24:54;;;;;;;6.10;5.50;;;55.30;21.40;;;;;;5032550;28;20468;-71
2022/03/26 12:27:21;;;;;;;6.67;5.97;;;55.50;21.30;;;;;;5032539;28;20499;-69
2022/03/26 12:29:47;;;;;;;5.37;4.87;;;55.70;21.30;;;;;;5032341;28;20413;-69
2022/03/26 12:32:13;;;;;;;5.33;4.93;;;55.90;21.40;;;;;;5032461;28;20398;-69
2022/03/26 12:35:02;;;;;;;5.17;4.27;;;56.10;21.20;;;;;;5032334;28;20196;-69
2022/03/26 12:37:28;;;;;;;4.17;3.80;;;56.30;21.00;;;;;;5032447;28;20409;-69
2022/03/26 12:39:55;;;;;;;5.70;5.30;;;56.50;20.80;;;;;;5031746;28;20398;-69
2022/03/26 12:42:23;;;;;;;4.83;4.20;;;56.30;20.70;;;;;;5032073;28;20967;-69
2022/03/26 12:44:49;;;;;;;4.60;4.20;;;56.10;20.70;;;;;;5032200;28;20405;-69
2022/03/26 12:47:16;;;;;;;5.23;4.10;;;56.10;20.90;;;;;;5030810;28;20468;-69
2022/03/26 12:49:43;;;;;;;4.60;4.00;;;56.10;20.70;;;;;;5031991;28;20178;-69
2022/03/26 12:52:09;;;;;;;3.60;3.30;;;56.20;20.50;;;;;;5032180;28;20442;-69
2022/03/26 12:54:34;;;;;;;4.10;3.40;;;56.30;20.50;;;;;;5031948;28;20862;-69
2022/03/26 12:57:01;;;;;;;3.07;2.87;;;56.20;20.40;;;;;;5032114;28;20168;-70
2022/03/26 12:59:28;;;;;;;3.27;2.97;;;56.10;20.40;;;;;;5031864;28;20510;-69
2022/03/26 13:02:00;;;;;;;3.30;3.07;;;56.10;20.60;;;;;;5031979;28;20418;-69